Coral, Michigan
Current Conditions -  °F | °C
As of 3:14 AM on Sunday 21 Dec 2014 (Local Time) from KRQB Reporting Station
Haze Haze  
Wind Chill: 29°   Ceiling: 300
Heat Index: 29°   Visibility: 2mi
Dew Point: 29°   Wind: 0mph
Humidity: 100%   Direction: NA
Pressure: 30.23"   Gusts: NA
Location:  43.36°N, 85.4°W
Report Text: KRQB 210814Z AUTO 00000KT 2SM BR OVC003 M01/M01 A3023 RMK AO2 T10151015
Loading
Personal Weather Stations






























Interactive Weather Map New forecast layout! Learn more

10-Day Weather Forecast

Advertisements
Track Severe Weather on mobile